Date,TemperatureHighF,TemperatureAvgF,TemperatureLowF,DewpointHighF,DewpointAvgF,DewpointLowF,HumidityHigh,HumidityAvg,HumidityLow,PressureMaxIn,PressureMinIn,WindSpeedMaxMPH,WindSpeedAvgMPH,GustSpeedMaxMPH,PrecipitationSumIn
2013-1-1,14.4,6.8,-2.9,8.4,1.3,-7.3,82,78,67,30.23,30.08,0,0,0,0.00
2013-1-2,27.0,14.3,4.1,13.2,4.4,-35.5,81,70,5,30.09,29.96,0,0,0,0.00
2013-1-3,27.1,13.5,6.8,15.4,6.3,-24.5,79,74,11,30.26,30.05,0,0,0,0.00
2013-1-4,30.2,19.3,8.6,22.7,10.9,1.3,75,69,51,30.18,30.09,0,0,0,0.00
2013-1-5,34.2,23.0,13.8,19.5,6.8,-25.8,71,51,9,30.14,29.87,0,0,0,0.00
2013-1-6,22.5,15.6,10.4,16.0,7.5,-2.8,78,70,49,30.22,29.96,0,0,0,0.00
2013-1-7,37.9,28.3,15.8,29.0,19.0,2.8,74,68,37,30.16,29.96,0,0,0,0.00
2013-1-8,37.0,30.2,20.8,25.4,9.0,-16.8,63,42,16,30.00,29.85,0,0,0,0.00
2013-1-9,39.0,32.0,27.3,29.7,16.0,-7.9,70,53,19,30.39,29.97,0,0,0,0.00
2013-1-10,38.5,33.2,28.0,28.3,-2.4,-57.3,71,42,1,30.37,29.74,0,0,0,0.00
2013-1-11,44.4,38.7,34.3,-50.9,-54.5,-57.2,1,1,1,29.75,29.48,0,0,0,0.00
2013-1-12,44.8,23.9,13.8,9.5,-10.5,-62.3,62,40,1,30.03,29.49,0,0,0,0.00
2013-1-13,13.8,9.8,6.1,4.2,-0.4,-4.2,68,63,55,30.23,29.97,0,0,0,0.00
2013-1-14,26.2,14.9,5.2,16.4,5.3,-5.7,69,65,54,30.38,30.23,0,0,0,0.00
2013-1-15,31.3,18.5,12.6,19.6,8.0,-1.6,68,63,52,30.33,29.98,0,0,0,0.00
2013-1-16,42.1,29.0,17.4,28.0,0.7,-57.8,67,45,1,30.13,29.78,0,0,0,0.00
2013-1-17,28.2,20.0,11.3,18.5,10.3,2.5,72,66,47,30.37,30.13,0,0,0,0.00
2013-1-18,47.8,35.5,23.7,35.0,18.6,-2.6,64,51,29,30.30,29.80,0,0,0,0.00
2013-1-19,47.7,32.8,9.1,34.9,-5.8,-58.0,72,39,1,30.13,29.74,0,0,0,0.00
2013-1-20,14.0,8.6,4.1,4.2,1.0,-2.4,75,71,61,30.32,30.12,0,0,0,0.00
2013-1-21,6.8,0.7,-5.6,-0.2,-7.0,-13.4,75,69,60,30.28,30.19,0,0,0,0.00
2013-1-22,9.7,3.0,-5.6,1.9,-5.1,-11.2,77,69,56,30.34,30.23,0,0,0,0.00
2013-1-23,23.0,13.5,1.8,14.2,4.9,-7.0,72,68,61,30.45,30.09,0,0,0,0.00
2013-1-24,17.4,7.9,-1.1,7.3,-3.1,-9.7,71,61,47,30.58,30.16,0,0,0,0.00
2013-1-25,28.6,18.0,6.8,18.0,8.7,0.0,74,67,49,30.22,29.97,0,0,0,0.00
2013-1-26,27.5,16.6,2.7,15.3,6.6,-3.7,75,65,50,30.32,30.18,0,0,0,0.00
2013-1-27,32.7,30.1,26.1,19.3,-25.2,-59.2,67,28,1,30.18,29.75,0,0,0,0.00
2013-1-28,43.0,33.4,31.1,-51.8,-57.8,-59.2,1,1,1,29.91,29.61,0,0,0,0.00
2013-1-29,47.5,37.5,32.5,-49.0,-55.3,-58.3,1,1,1,29.62,29.50,0,0,0,0.00
2013-1-30,32.7,21.7,12.0,1.6,-40.1,-66.2,60,16,1,29.72,29.43,0,0,0,0.00
2013-1-31,12.0,2.5,-5.1,0.8,-4.5,-10.4,77,72,56,30.22,29.72,0,0,0,0.00
2013-2-1,11.8,0.2,-10.3,-1.1,-7.3,-15.3,78,71,49,30.28,29.99,0,0,0,0.00
2013-2-2,15.4,12.9,10.0,7.9,3.3,-4.3,76,66,44,30.09,29.92,0,0,0,0.00
2013-2-3,21.2,16.8,9.5,12.9,7.1,-16.8,77,67,20,30.05,29.83,0,0,0,0.00
2013-2-4,21.2,16.5,9.0,12.9,7.5,1.3,79,68,44,29.97,29.80,0,0,0,0.00
2013-2-5,34.9,25.0,14.4,26.4,8.4,-15.9,72,51,17,30.07,29.73,0,0,0,0.00
2013-2-6,36.9,26.2,11.7,21.1,-0.4,-54.9,65,39,2,30.11,29.92,0,0,0,0.00
2013-2-7,35.8,32.1,26.6,-1.5,-51.1,-62.1,20,3,1,30.13,29.90,0,0,0,0.00
2013-2-8,28.6,26.9,26.2,14.1,-14.1,-62.2,55,23,1,30.32,30.13,0,0,0,0.00
2013-2-9,30.9,28.3,26.2,-6.4,-20.0,-59.7,22,13,1,30.25,29.91,0,0,0,0.00
2013-2-10,35.4,33.9,30.2,-56.5,-57.5,-59.8,1,1,1,29.93,29.28,0,0,0,0.02
2013-2-11,35.4,26.1,22.3,7.9,-33.8,-63.0,52,17,1,30.03,29.36,0,0,0,0.01
2013-2-12,36.7,28.3,21.4,22.4,3.1,-61.4,60,39,1,30.06,29.81,0,0,0,0.00
2013-2-13,37.9,31.6,23.0,19.7,-19.3,-64.4,51,19,1,29.82,29.59,0,0,0,0.00
2013-2-14,36.9,32.6,21.9,27.1,7.8,-57.5,72,47,1,30.08,29.58,0,0,0,0.00
2013-2-15,23.2,18.4,13.1,14.8,10.8,6.5,75,72,64,30.22,30.08,0,0,0,0.00
2013-2-16,23.0,16.2,10.6,15.3,8.9,2.8,75,72,68,30.22,30.08,0,0,0,0.00
2013-2-17,32.4,24.4,14.5,23.7,15.9,5.6,73,70,64,30.09,29.70,0,0,0,0.00
2013-2-18,38.8,28.7,10.8,27.2,12.1,-58.0,76,54,1,29.73,29.54,0,0,0,0.00
2013-2-19,9.5,3.0,0.5,2.9,-2.7,-5.2,78,77,74,30.26,29.76,0,0,0,0.00
2013-2-20,21.4,10.2,0.0,14.2,3.8,-5.3,78,75,70,30.37,30.25,0,0,0,0.00
2013-2-21,23.2,18.4,11.5,15.6,1.8,-64.6,75,61,1,30.32,29.89,0,0,0,0.00
2013-2-22,30.2,25.1,21.4,14.9,-29.1,-64.4,60,21,1,29.89,29.77,0,0,0,0.00
2013-2-23,27.0,19.8,12.2,19.0,7.4,-3.6,75,59,37,29.94,29.85,0,0,0,0.00
2013-2-24,30.7,21.8,7.5,22.6,10.0,-5.9,72,61,32,30.06,29.93,0,0,0,0.00
2013-2-25,37.0,30.4,23.9,28.2,14.5,1.5,70,52,32,30.08,29.93,0,0,0,0.00
2013-2-26,34.2,31.1,28.2,24.0,10.5,-60.0,66,52,1,29.93,29.68,0,0,0,0.00
2013-2-27,33.6,30.5,27.7,11.7,-33.6,-61.4,40,11,1,29.88,29.71,0,0,0,0.00
2013-2-28,31.8,29.4,26.8,22.6,10.9,-60.5,69,49,1,30.10,29.88,0,0,0,0.00
2013-3-1,27.0,23.3,13.3,19.1,14.8,5.9,76,70,51,30.25,30.09,0,0,0,0.00
2013-3-2,26.6,16.8,8.4,18.3,9.5,0.5,76,73,68,30.25,30.13,0,0,0,0.00
2013-3-3,28.2,20.9,9.7,18.5,13.1,3.7,77,72,62,30.14,29.96,0,0,0,0.00
2013-3-4,31.1,26.4,22.6,21.6,12.9,1.3,74,57,36,29.99,29.85,0,0,0,0.00
2013-3-5,30.9,27.1,19.8,17.0,-6.8,-62.9,67,33,1,30.17,29.89,0,0,0,0.00
2013-3-6,26.8,21.2,10.6,19.0,10.0,-3.6,75,62,35,30.32,30.17,0,0,0,0.00
2013-3-7,28.6,18.4,6.3,20.8,6.3,-5.1,73,59,39,30.34,30.28,0,0,0,0.00
2013-3-8,35.2,27.9,18.7,21.9,7.3,-13.9,58,42,14,30.31,30.10,0,0,0,0.00
2013-3-9,36.3,35.0,33.4,-13.9,-53.7,-57.8,12,2,1,30.10,29.70,0,0,0,0.00
2013-3-10,59.9,36.8,35.8,-41.4,-55.6,-56.3,1,1,1,29.76,29.60,0,0,0,0.00
2013-3-11,37.2,29.8,23.4,-8.2,-59.1,-63.6,24,1,1,29.84,29.63,0,0,0,0.00
2013-3-12,30.0,24.3,20.5,18.6,-5.6,-64.8,71,39,1,30.10,29.83,0,0,0,0.00
2013-3-13,28.4,21.2,15.1,19.9,12.0,4.7,73,67,55,30.33,30.10,0,0,0,0.00
2013-3-14,37.2,29.7,21.2,23.8,2.5,-62.6,71,40,1,30.27,30.00,0,0,0,0.00
2013-3-15,38.5,33.1,28.0,10.7,-45.6,-61.2,32,5,1,30.00,29.72,0,0,0,0.00
2013-3-16,32.9,28.2,22.3,16.0,-24.9,-62.8,64,25,1,30.15,29.76,0,0,0,0.00
2013-3-17,32.4,25.4,17.2,21.1,12.5,6.1,70,59,35,30.16,29.88,0,0,0,0.00
2013-3-18,31.5,24.7,14.7,11.5,-20.8,-62.3,65,28,1,29.88,29.62,0,0,0,0.00
2013-3-19,26.1,17.2,10.2,17.1,8.6,-3.6,75,69,43,30.14,29.82,0,0,0,0.00
2013-3-20,20.8,14.1,8.6,11.7,6.4,1.7,75,71,62,30.16,30.06,0,0,0,0.00
2013-3-21,25.2,16.8,7.3,15.7,9.0,0.8,75,71,62,30.08,29.99,0,0,0,0.00
2013-3-22,32.2,23.5,13.6,21.7,14.7,5.8,72,69,63,30.05,29.99,0,0,0,0.00
2013-3-23,35.2,29.7,21.9,24.9,18.9,9.7,70,64,56,30.10,30.00,0,0,0,0.00
2013-3-24,32.4,30.0,27.7,19.3,-13.7,-61.3,60,27,1,30.02,29.84,0,0,0,0.00
2013-3-25,34.7,29.6,23.7,24.7,16.6,0.0,67,59,28,30.15,29.88,0,0,0,0.00
2013-3-26,38.1,30.4,24.4,28.5,15.1,0.2,70,54,32,30.26,30.15,0,0,0,0.00
2013-3-27,40.8,33.4,27.1,28.7,17.3,-4.5,69,53,24,30.31,30.25,0,0,0,0.00
2013-3-28,45.3,36.6,28.8,34.3,25.6,17.0,69,64,54,30.31,30.24,0,0,0,0.00
2013-3-29,53.1,41.7,31.8,40.7,29.7,21.0,67,62,52,30.27,30.12,0,0,0,0.00
2013-3-30,47.1,41.2,32.5,26.8,-24.6,-58.3,60,17,1,30.12,29.84,0,0,0,0.00
2013-3-31,42.8,34.3,28.9,25.5,-26.4,-59.5,57,20,1,30.00,29.81,0,0,0,0.00
2013-4-1,34.2,28.3,23.0,21.8,13.7,3.8,65,54,36,30.21,30.00,0,0,0,0.00
2013-4-2,37.0,29.6,23.0,23.9,3.0,-64.4,62,41,1,30.30,30.20,0,0,0,0.00
2013-4-3,43.9,33.9,23.5,27.4,17.2,-15.1,62,51,16,30.39,30.21,0,0,0,0.00
2013-4-4,54.1,41.4,32.0,38.7,25.6,8.3,62,54,31,30.20,30.00,0,0,0,0.00
2013-4-5,47.1,39.6,30.7,32.7,19.3,-28.5,61,47,6,30.19,29.91,0,0,0,0.00
2013-4-6,59.4,46.3,36.9,43.5,3.6,-52.7,62,37,1,29.91,29.49,0,0,0,0.00
2013-4-7,56.5,44.2,35.2,39.8,-18.9,-56.6,55,16,1,29.95,29.71,0,0,0,0.00
2013-4-8,61.5,51.8,43.9,15.7,-37.6,-51.4,25,3,1,29.89,29.64,0,0,0,0.00
2013-4-9,46.0,40.5,37.8,-49.9,-53.3,-55.2,1,1,1,29.98,29.77,0,0,0,0.00
2013-4-10,37.8,34.7,32.2,-55.1,-57.0,-58.6,1,1,1,30.06,29.70,0,0,0,0.00
2013-4-11,41.0,37.3,34.7,-53.0,-55.4,-57.0,1,1,1,29.76,29.51,0,0,0,0.00
2013-4-12,36.5,33.7,31.3,11.6,-33.6,-59.2,41,10,1,29.83,29.53,0,0,0,0.00
2013-4-13,42.8,35.2,30.6,30.7,9.5,-59.5,63,42,1,29.93,29.83,0,0,0,0.00
2013-4-14,59.2,42.1,32.4,16.8,-41.5,-58.5,47,7,1,29.90,29.44,0,0,0,0.00
2013-4-15,46.6,40.9,34.3,33.1,5.1,-56.0,63,38,1,30.01,29.60,0,0,0,0.00
2013-4-16,48.6,39.3,30.4,36.2,16.4,-59.7,65,47,1,30.23,29.99,0,0,0,0.00
2013-4-17,42.1,39.8,37.0,29.7,-21.1,-55.5,63,23,1,30.22,29.60,0,0,0,0.00
2013-4-18,41.4,37.5,32.2,-52.8,-55.2,-58.6,1,1,1,29.72,29.39,0,0,0,0.00
2013-4-19,36.3,32.7,30.9,19.3,-26.3,-59.4,50,17,1,29.96,29.48,0,0,0,0.00
2013-4-20,44.4,35.5,27.0,28.0,0.4,-61.9,65,39,1,30.28,29.96,0,0,0,0.00
2013-4-21,56.8,45.2,34.2,42.3,16.2,-57.3,63,42,1,30.29,30.07,0,0,0,0.00
2013-4-22,59.0,50.8,41.9,40.9,-24.5,-52.7,54,11,1,30.17,29.90,0,0,0,0.00
2013-4-23,41.5,35.9,32.7,28.3,-13.3,-57.8,63,27,1,30.06,29.95,0,0,0,0.00
2013-4-24,51.3,39.2,27.9,36.1,7.7,-61.2,63,36,1,30.07,29.93,0,0,0,0.00
2013-4-25,54.3,41.2,30.2,33.5,17.0,-56.3,65,46,1,30.22,30.01,0,0,0,0.00
2013-4-26,69.1,55.4,41.2,49.4,37.6,6.9,64,52,18,30.18,30.08,0,0,0,0.00
2013-4-27,65.5,54.5,42.1,48.7,5.3,-52.4,59,32,1,30.19,29.98,0,0,0,0.00
2013-4-28,72.7,58.7,41.9,50.1,22.4,-52.5,57,37,1,29.98,29.75,0,0,0,0.00
2013-4-29,72.5,61.2,52.5,53.7,-2.1,-45.9,52,18,1,29.81,29.59,0,0,0,0.00
2013-4-30,80.8,69.0,55.6,59.1,19.0,-40.8,57,31,1,29.92,29.56,0,0,0,0.00
2013-5-1,56.5,49.5,39.0,37.2,3.5,-48.1,50,24,1,30.29,29.88,0,0,0,0.00
2013-5-2,39.0,33.4,31.6,-6.0,-52.2,-58.9,15,2,1,30.35,30.22,0,0,0,0.00
2013-5-3,35.1,32.6,30.6,-56.8,-58.3,-59.6,1,1,1,30.27,29.95,0,0,0,0.00
2013-5-4,64.0,47.3,34.9,-38.8,-49.2,-56.9,1,1,1,30.03,29.93,0,0,0,0.00
2013-5-5,69.3,54.6,41.9,50.5,-20.9,-52.6,52,13,1,30.07,29.99,0,0,0,0.00
2013-5-6,73.4,60.5,48.0,52.7,4.3,-48.7,54,24,1,30.07,29.99,0,0,0,0.00
2013-5-7,77.2,65.7,51.4,52.4,34.1,-34.5,56,33,2,30.05,29.96,0,0,0,0.00
2013-5-8,77.7,65.2,54.9,53.5,30.3,-41.5,57,40,1,30.01,29.93,0,0,0,0.00
2013-5-9,61.9,57.7,55.4,-40.2,-42.7,-44.1,1,1,1,29.94,29.81,0,0,0,0.00
2013-5-10,55.4,55.4,55.4,-44.1,-44.1,-44.1,1,1,1,30.00,29.89,0,0,0,0.00
2013-5-11,55.4,55.4,55.4,-44.1,-44.1,-44.1,1,1,1,30.11,29.87,0,0,0,0.00
2013-5-12,67.3,53.5,44.8,45.2,-7.5,-44.1,48,20,1,30.24,30.09,18,4,21,0.00
2013-5-13,69.1,55.1,37.4,46.9,35.4,24.1,70,49,31,30.14,29.79,21,8,21,0.00
2013-5-14,95.7,74.5,52.3,59.9,51.9,44.1,75,50,25,29.79,29.50,30,11,30,0.00
2013-5-15,77.0,67.4,55.0,49.0,45.7,41.5,72,47,31,29.91,29.65,27,6,30,0.00
2013-5-16,82.8,70.0,54.7,53.1,47.3,42.4,71,46,29,29.94,29.83,17,4,27,0.01
2013-5-17,78.1,66.2,53.2,62.5,54.6,43.3,74,67,51,29.99,29.86,19,9,20,0.31
2013-5-18,82.2,70.1,57.2,64.1,57.7,48.3,74,66,50,30.00,29.82,22,10,22,0.00
2013-5-19,81.7,71.4,62.6,69.1,60.0,48.7,72,67,60,29.86,29.56,36,16,36,0.56
2013-5-20,75.4,69.7,59.5,62.7,58.5,47.5,75,68,61,29.69,29.57,23,10,23,0.23
2013-5-21,65.7,62.0,59.4,56.8,51.6,45.9,75,69,61,29.67,29.54,18,8,18,0.07
2013-5-22,66.2,60.0,55.0,57.0,50.1,42.3,75,70,61,29.81,29.63,25,6,25,0.81
2013-5-23,62.4,56.1,50.2,52.3,44.7,40.3,77,66,47,30.27,29.81,30,12,30,0.33
2013-5-24,65.3,55.4,43.7,49.1,42.6,36.6,77,64,40,30.38,30.21,20,8,20,0.22
2013-5-25,53.6,51.6,48.7,46.4,43.6,40.7,77,74,69,30.29,30.21,29,12,30,0.20
2013-5-26,54.1,50.1,45.7,44.2,40.7,34.4,78,70,63,30.22,30.01,41,9,41,0.82
2013-5-27,60.3,56.5,53.4,47.6,44.2,41.1,65,63,62,30.03,29.78,20,8,41,0.07
2013-5-28,73.2,63.3,54.0,64.8,51.8,42.1,75,66,59,29.79,29.66,15,4,21,0.05
2013-5-29,77.4,65.9,59.5,68.1,54.2,46.7,76,66,59,29.83,29.72,21,9,21,2.08
2013-5-30,74.7,68.4,62.2,65.6,58.7,50.0,76,71,61,29.76,29.55,30,15,30,0.01
2013-5-31,75.4,67.2,60.6,64.7,56.2,47.5,76,68,61,29.70,29.61,26,12,30,0.00
2013-6-1,68.4,63.8,57.7,58.2,54.1,46.2,78,71,61,29.83,29.59,19,7,26,0.00
2013-6-2,61.5,54.2,47.1,50.2,44.5,40.9,79,70,54,30.04,29.83,29,6,30,0.00
2013-6-3,68.4,59.3,48.6,50.5,45.4,41.0,76,61,41,30.08,29.97,13,3,30,0.00
2013-6-4,59.4,56.7,52.2,52.0,49.1,43.0,78,75,69,30.13,30.01,22,8,23,0.24
2013-6-5,61.5,57.5,54.1,50.1,45.8,41.2,78,65,60,30.04,29.91,14,4,23,0.27
2013-6-6,65.5,59.2,55.9,57.6,49.2,43.2,78,70,61,29.96,29.88,19,5,19,0.00
2013-6-7,65.1,58.5,54.3,56.6,49.0,42.0,78,71,63,29.99,29.91,12,3,19,0.00
2013-6-8,69.8,62.5,52.7,57.7,52.9,44.8,78,71,58,29.93,29.86,14,4,14,0.00
2013-6-9,69.4,64.6,61.2,61.2,56.2,50.1,77,74,67,29.87,29.73,24,12,24,0.00
2013-6-10,75.4,66.2,60.1,63.1,54.8,46.9,77,67,61,29.87,29.76,11,2,24,0.00
2013-6-11,84.6,73.1,59.7,67.4,60.5,47.5,76,65,47,29.89,29.78,15,4,15,0.00
2013-6-12,81.0,73.5,67.5,71.9,63.4,53.1,76,71,59,29.92,29.63,24,6,24,0.35
2013-6-13,76.5,73.1,63.7,60.9,57.9,55.1,77,60,49,30.03,30.00,20,5,21,0.35
2013-6-14,76.3,67.8,60.1,61.5,57.7,52.3,77,70,57,30.10,29.89,24,8,24,0.00
2013-6-15,76.1,70.1,63.9,67.6,60.2,50.1,77,71,61,29.99,29.83,16,5,24,0.14
2013-6-16,83.1,73.9,63.0,64.6,53.8,48.2,77,52,30,29.94,29.88,13,4,16,0.01
2013-6-17,85.6,74.7,63.1,59.9,55.4,52.2,74,53,33,29.95,29.87,19,5,20,0.00
2013-6-18,74.8,67.7,61.2,59.1,56.3,52.8,77,67,52,30.07,29.93,15,4,20,0.00
2013-6-19,80.8,70.1,58.6,61.3,56.7,51.1,77,64,47,30.10,29.99,17,8,17,0.00
2013-6-20,86.4,76.8,64.4,66.1,62.2,56.3,76,62,47,30.07,29.94,26,11,26,0.00
2013-6-21,81.7,74.0,63.1,71.9,64.3,49.5,77,72,61,30.03,29.86,37,11,37,1.50
2013-6-22,86.4,76.3,66.2,76.3,66.7,55.8,78,72,60,29.98,29.80,23,9,25,0.00
2013-6-23,79.7,72.4,66.9,68.9,64.0,59.0,79,75,66,29.95,29.81,23,7,23,0.02
2013-6-24,73.0,68.8,66.6,65.0,58.1,53.3,77,69,60,30.02,29.82,24,6,24,0.59
2013-6-25,81.3,73.4,66.0,73.0,63.6,52.1,77,71,60,29.86,29.73,22,5,24,0.17
2013-6-26,82.4,73.4,66.7,74.3,64.0,53.6,78,73,62,29.81,29.67,16,4,22,0.15
2013-6-27,85.3,75.8,65.3,70.9,61.4,53.7,78,63,35,29.85,29.79,27,6,28,0.00
2013-6-28,78.1,70.7,62.1,63.4,59.3,54.8,79,68,51,29.82,29.71,24,8,28,0.11
2013-6-29,68.2,64.3,62.1,61.4,55.5,49.5,80,73,62,29.89,29.70,31,9,31,0.36
2013-6-30,74.1,65.7,57.0,58.9,54.1,50.2,81,67,47,30.07,29.89,24,10,31,0.00
2013-7-1,78.3,69.2,58.5,58.7,54.7,51.5,79,62,42,30.14,30.07,17,5,24,0.00
2013-7-2,79.9,70.4,60.4,61.1,57.4,53.2,79,65,43,30.11,30.02,14,3,17,0.00
2013-7-3,77.4,68.0,57.9,60.1,54.8,51.1,79,64,44,30.08,29.99,10,3,14,0.00
2013-7-4,81.7,71.2,58.8,63.2,57.7,52.1,79,64,46,30.04,29.95,18,5,18,0.00
2013-7-5,84.0,74.1,62.6,64.9,60.6,55.3,79,64,46,30.02,29.92,21,7,21,0.00
2013-7-6,86.4,76.5,65.5,69.3,64.7,58.1,78,68,53,29.98,29.87,19,8,19,0.00
2013-7-7,87.8,78.5,68.4,73.0,67.1,58.2,78,69,55,29.92,29.85,15,7,18,0.00
2013-7-8,88.0,79.7,72.3,74.9,68.3,57.8,78,68,59,29.96,29.87,10,2,15,0.26
2013-7-9,86.2,78.2,72.7,76.7,67.7,58.0,78,70,60,29.96,29.85,14,5,14,0.16
2013-7-10,78.3,71.8,66.6,67.2,59.2,55.3,80,66,46,30.04,29.89,20,4,20,0.00
2013-7-11,80.1,70.6,59.4,62.9,58.6,52.8,80,67,47,30.11,30.03,12,3,20,0.00
2013-7-12,80.8,70.8,60.8,64.9,58.8,54.2,80,67,46,30.10,30.01,22,9,22,0.00
2013-7-13,72.9,67.1,63.3,64.5,59.8,55.6,80,77,68,30.14,30.02,16,6,22,0.10
2013-7-14,82.9,73.4,62.2,70.0,63.2,54.9,80,71,53,30.19,30.09,17,6,17,0.01
2013-7-15,86.4,77.4,67.5,74.1,67.8,57.0,79,73,63,30.24,30.16,13,4,17,0.00
2013-7-16,88.5,80.1,71.6,75.4,69.2,57.8,78,70,61,30.24,30.19,9,4,13,0.00
2013-7-17,90.3,81.5,72.0,76.3,69.6,59.6,79,68,54,30.28,30.15,7,2,9,0.01
2013-7-18,90.7,81.6,72.0,74.7,69.7,61.0,79,68,54,30.16,29.89,15,5,15,0.00
2013-7-19,89.1,79.4,67.8,74.7,67.4,59.4,79,68,47,29.90,29.81,16,5,16,0.00
2013-7-20,84.2,73.9,63.0,67.0,62.9,56.3,80,69,53,29.94,29.86,9,2,9,0.00
2013-7-21,81.9,71.6,64.8,70.6,62.9,55.7,81,74,52,29.92,29.82,17,4,17,0.01
2013-7-22,87.1,72.4,63.1,75.1,61.9,51.0,80,70,57,29.87,29.67,22,6,22,0.01
2013-7-23,75.0,66.9,59.7,59.7,56.3,53.2,81,70,50,29.99,29.78,22,5,22,0.00
2013-7-24,73.8,65.2,55.0,58.9,54.9,49.0,81,70,54,30.06,29.98,6,2,6,0.01
2013-7-25,82.8,68.0,56.3,67.1,58.1,47.7,81,71,54,30.03,29.91,29,6,29,0.43
2013-7-26,70.7,65.9,57.2,64.1,55.1,50.7,83,68,63,29.99,29.91,18,5,29,0.04
2013-7-27,62.8,54.9,48.7,51.9,47.7,43.5,84,77,58,30.01,29.92,16,3,18,0.00
2013-7-28,68.5,58.3,47.8,53.7,49.6,42.9,84,74,54,30.04,29.90,17,2,17,0.00
2013-7-29,73.9,63.2,51.3,58.6,53.6,46.6,84,72,54,30.12,30.03,11,3,17,0.00
2013-7-30,70.2,65.8,59.7,63.7,59.7,54.2,83,81,75,30.09,30.04,14,4,14,0.00
2013-7-31,77.5,69.0,60.8,66.7,59.8,52.1,83,73,63,30.06,29.98,9,2,14,0.00
2013-8-1,79.2,68.0,56.8,66.7,58.9,51.7,84,74,49,30.04,29.86,9,2,9,0.00
2013-8-2,77.4,69.4,62.4,63.6,58.9,55.4,84,70,52,30.00,29.84,16,3,16,0.01
2013-8-3,76.3,66.7,54.7,59.9,54.2,49.9,84,66,45,30.15,30.00,16,4,16,0.00
2013-8-4,75.9,65.9,55.8,57.6,54.3,49.8,83,67,47,30.19,30.05,10,2,16,0.00
2013-8-5,74.3,65.8,59.5,68.8,58.9,49.5,83,79,66,30.05,29.82,19,5,19,1.37
2013-8-6,81.7,71.8,61.5,72.0,61.0,49.8,80,69,52,29.87,29.76,8,2,12,0.01
2013-8-7,74.5,68.4,61.5,64.5,59.3,48.8,78,73,57,29.99,29.77,18,4,18,0.00
2013-8-8,75.7,66.6,55.0,64.2,56.4,43.7,77,70,62,30.03,29.96,11,2,19,0.00
2013-8-9,74.8,67.8,59.4,62.7,53.9,38.5,72,62,43,30.10,29.96,15,2,15,0.00
2013-8-10,74.5,65.3,52.9,62.1,51.7,32.3,70,62,38,30.17,30.07,9,1,15,0.00
2013-8-11,73.0,66.8,62.6,59.5,25.1,-39.7,63,32,1,30.10,29.98,15,3,15,0.09
2013-8-12,75.9,67.8,60.8,61.2,9.9,-40.8,63,28,1,30.01,29.95,14,2,14,0.01
2013-8-13,69.6,62.7,55.6,53.9,17.4,-44.0,64,36,1,30.15,30.01,17,4,17,0.00
2013-8-14,73.8,62.5,51.1,55.2,33.4,-46.5,62,43,1,30.19,30.10,8,1,17,0.00
2013-8-15,74.8,64.3,54.1,56.4,26.0,-44.8,61,35,1,30.14,30.07,8,1,8,0.00
2013-8-16,76.6,66.6,55.6,59.6,24.2,-43.7,60,35,1,30.18,30.11,8,1,8,0.00
2013-8-17,79.3,68.3,57.9,59.9,35.7,-42.6,60,38,1,30.20,30.11,9,2,9,0.00
2013-8-18,78.3,67.6,57.7,62.3,21.4,-42.7,59,30,1,30.17,30.05,14,4,14,0.00
2013-8-19,79.5,68.3,57.4,63.9,1.8,-42.9,59,22,1,30.06,29.97,14,4,14,0.00
2013-8-20,84.2,74.2,64.4,66.8,16.1,-38.6,57,24,1,30.00,29.92,20,8,21,0.00
2013-8-21,85.5,77.0,68.4,68.2,8.4,-36.2,57,20,1,29.99,29.92,13,4,17,0.00
2013-8-22,77.4,71.9,65.8,29.6,-29.4,-37.7,18,2,1,30.08,29.95,26,2,26,0.40
2013-8-23,79.5,70.9,62.1,55.3,-15.6,-40.0,45,8,1,30.14,30.06,16,4,16,0.00
2013-8-24,84.0,74.4,64.2,36.3,-26.4,-38.7,19,2,1,30.15,30.06,18,9,18,0.00
2013-8-25,88.0,79.1,69.3,64.1,2.8,-35.7,46,13,1,30.14,30.03,14,6,14,0.40
2013-8-26,90.5,79.0,67.5,55.6,-12.4,-36.8,31,6,1,30.07,29.92,10,4,14,0.00
2013-8-27,90.5,80.9,71.2,59.4,-4.6,-34.5,38,10,1,29.94,29.82,15,4,15,0.00
2013-8-28,82.9,77.8,73.4,-27.4,-30.5,-33.2,1,1,1,30.00,29.87,7,2,15,0.00
2013-8-29,90.3,79.4,70.5,42.2,-23.1,-34.9,19,2,1,30.02,29.91,12,4,12,0.00
2013-8-30,89.4,79.9,72.9,-23.5,-29.3,-33.5,1,1,1,29.91,29.79,15,3,15,0.00
2013-8-31,81.7,73.3,67.6,-28.2,-33.2,-36.6,1,1,1,29.86,29.77,7,2,15,0.00
2013-9-1,78.8,70.3,60.4,44.3,-20.5,-41.0,30,5,1,29.91,29.74,13,3,13,0.00
2013-9-2,67.5,60.0,52.5,-36.8,-41.3,-45.9,1,1,1,30.02,29.90,19,3,19,0.00
2013-9-3,73.8,61.2,48.0,46.2,-23.7,-48.7,38,7,1,30.08,30.00,9,2,19,0.00
2013-9-4,83.8,69.9,54.5,32.5,-30.3,-44.7,16,2,1,30.10,30.02,10,2,10,0.00
2013-9-5,79.5,69.9,64.6,-29.5,-35.3,-38.5,1,1,1,30.19,30.09,10,2,10,0.00
2013-9-6,86.0,73.1,59.9,60.2,-12.2,-41.4,44,10,1,30.13,29.91,14,5,14,0.00
2013-9-7,87.4,75.3,64.9,-24.7,-32.0,-38.3,1,1,1,29.93,29.84,18,2,18,0.01
2013-9-8,73.6,70.3,66.9,-33.0,-35.0,-37.1,1,1,1,30.00,29.88,18,4,19,0.00
2013-9-9,93.2,78.0,66.2,67.2,-5.5,-37.5,43,11,1,29.88,29.74,15,5,18,0.00
2013-9-10,90.7,78.0,67.1,67.1,-0.4,-37.0,46,14,1,29.99,29.81,15,4,15,0.00
2013-9-11,81.5,70.3,63.0,-28.3,-35.1,-39.5,1,1,1,30.05,29.97,12,2,15,0.54
2013-9-12,72.0,63.7,55.4,50.5,-8.4,-44.1,48,17,1,30.15,30.01,24,4,24,0.00
2013-9-13,65.1,56.1,45.0,43.9,-13.9,-50.6,47,15,1,30.23,30.09,14,2,23,0.00
2013-9-14,72.3,59.5,45.5,49.2,0.4,-50.2,50,23,1,30.11,29.87,14,5,14,0.01
2013-9-15,63.7,57.7,54.0,-39.1,-42.7,-45.0,1,1,1,30.20,29.85,22,7,23,0.37
2013-9-16,65.5,55.5,46.9,24.0,-39.5,-49.4,21,2,1,30.34,30.20,10,2,23,0.01
2013-9-17,62.1,54.2,47.3,-40.0,-44.9,-49.1,1,1,1,30.25,29.98,15,6,15,0.07
2013-9-18,79.7,68.3,61.2,-29.5,-36.3,-40.6,1,1,1,29.98,29.75,20,9,20,0.01
2013-9-19,82.0,72.8,64.9,-28.0,-33.5,-38.3,1,1,1,29.80,29.68,19,5,20,0.30
2013-9-20,64.9,57.7,50.2,-38.3,-42.7,-47.5,1,1,1,29.90,29.78,16,4,19,0.00
2013-9-21,64.8,54.3,42.8,-38.4,-44.8,-51.9,1,1,1,29.95,29.88,8,2,10,0.00
2013-9-22,70.9,57.9,46.2,33.7,-33.7,-49.8,26,3,1,29.98,29.89,14,5,14,0.00
2013-9-23,71.2,58.5,46.9,47.9,-24.9,-49.4,44,9,1,30.00,29.89,21,8,21,0.00
2013-9-24,72.3,59.8,48.6,40.6,-25.9,-48.3,33,6,1,29.94,29.87,14,4,21,0.00
2013-9-25,72.3,59.8,46.9,39.2,-29.8,-49.4,31,5,1,29.95,29.87,8,3,15,0.00
2013-9-26,80.4,65.6,51.8,52.9,-20.5,-46.3,39,8,1,29.96,29.89,24,8,24,0.00
2013-9-27,81.3,69.1,57.4,57.4,-5.0,-42.9,46,13,1,30.00,29.89,27,11,27,0.00
2013-9-28,69.4,60.5,48.6,-35.6,-41.0,-48.5,1,1,1,29.97,29.76,26,9,27,0.43
2013-9-29,70.2,55.6,42.1,47.7,-21.2,-52.4,45,12,1,30.02,29.90,14,4,26,0.00
2013-9-30,72.5,60.0,48.0,51.0,-15.6,-48.7,48,14,1,29.91,29.71,22,8,22,0.00
2013-10-1,78.6,65.2,56.8,53.4,-2.4,-43.4,46,17,1,29.96,29.75,14,3,23,0.00
2013-10-2,77.4,65.0,51.3,53.1,17.5,-46.7,46,26,1,30.04,29.85,17,5,17,0.00
2013-10-3,75.4,66.3,58.6,-32.1,-37.5,-42.1,1,1,1,29.86,29.75,17,3,17,0.51
2013-10-4,69.4,63.7,58.6,-35.6,-39.1,-42.1,1,1,1,29.89,29.75,15,3,17,0.26
2013-10-5,70.5,59.1,43.7,5.7,-39.9,-51.4,12,1,1,29.85,29.73,20,4,21,0.12
2013-10-6,48.2,45.1,41.5,-48.6,-50.5,-52.7,1,1,1,29.78,29.67,11,2,12,0.26
2013-10-7,67.1,54.1,40.8,44.9,-24.0,-53.2,45,11,1,30.01,29.78,14,3,14,0.00
2013-10-8,75.4,59.9,44.8,48.2,-5.2,-50.7,48,18,1,30.04,29.95,21,8,21,0.00
2013-10-9,72.7,59.8,48.0,49.5,-10.4,-48.7,47,16,1,30.10,30.01,18,7,21,0.00
2013-10-10,73.4,59.6,47.1,51.6,-13.7,-49.2,49,15,1,30.06,29.91,18,7,18,0.00
2013-10-11,74.7,64.1,52.2,46.6,-13.4,-46.1,38,10,1,29.93,29.75,32,13,32,0.00
2013-10-12,66.9,56.8,45.1,41.4,-0.7,-48.9,50,23,1,30.17,29.76,25,8,32,0.00
2013-10-13,61.2,49.0,36.1,37.0,5.5,-56.1,51,29,1,30.38,30.17,9,2,10,0.00
2013-10-14,62.2,51.5,40.3,41.2,10.7,-53.5,51,31,1,30.34,29.92,22,9,22,0.07
2013-10-15,55.4,49.6,45.7,-44.1,-47.7,-50.1,1,1,1,29.92,29.73,23,13,23,0.22
2013-10-16,46.9,45.2,42.1,-49.4,-50.5,-52.4,1,1,1,29.92,29.76,18,4,23,0.02
2013-10-17,57.4,46.7,39.6,35.2,-29.8,-53.9,45,11,1,29.89,29.76,14,4,14,0.00
2013-10-18,50.5,43.8,36.0,28.2,-29.3,-56.2,45,11,1,29.94,29.81,17,6,17,0.00
2013-10-19,48.9,39.4,33.1,-48.1,-54.1,-58.0,1,1,1,29.87,29.70,19,5,19,0.11
2013-10-20,55.9,40.9,28.0,-43.8,-53.2,-61.2,1,1,1,29.82,29.63,22,6,22,0.01
2013-10-21,42.1,36.1,27.9,18.6,-27.8,-61.3,41,13,1,29.94,29.82,20,6,22,0.00
2013-10-22,43.7,33.8,26.4,14.9,-52.3,-62.2,32,3,1,29.97,29.88,12,2,21,0.00
2013-10-23,40.1,34.7,27.5,-1.6,-43.9,-61.5,21,4,1,30.03,29.95,17,4,17,0.00
2013-10-24,41.4,34.7,28.8,20.5,-31.8,-60.7,44,14,1,30.28,30.03,17,4,17,0.00
2013-10-25,52.2,39.7,26.1,32.4,-15.1,-62.4,49,23,1,30.29,29.88,24,9,24,0.00
2013-10-26,49.1,42.5,34.3,30.1,-3.3,-57.2,52,27,1,30.05,29.81,21,8,21,0.00
2013-10-27,57.2,40.9,24.4,34.7,-14.7,-63.4,49,21,1,30.04,29.81,20,6,21,0.00
2013-10-28,45.1,39.8,35.6,17.2,-36.8,-56.4,33,7,1,30.28,29.96,16,5,16,0.00
2013-10-29,56.3,46.1,36.9,37.9,-17.4,-55.6,51,18,1,30.28,30.01,16,7,16,0.00
2013-10-30,60.4,52.3,48.2,-41.1,-46.0,-48.6,1,1,1,30.01,29.62,29,10,29,0.49
2013-10-31,55.8,45.7,37.9,-43.9,-50.1,-55.0,1,1,1,29.62,29.38,14,6,16,0.34
2013-11-1,51.1,42.4,35.8,-46.8,-52.2,-56.3,1,1,1,29.76,29.40,20,6,21,0.00
2013-11-2,48.2,38.7,32.0,23.6,-44.3,-58.7,39,5,1,30.08,29.76,18,4,18,0.00
2013-11-3,52.2,41.7,31.6,30.1,-18.6,-58.9,45,15,1,30.17,30.01,32,14,32,0.34
2013-11-4,46.6,44.3,36.7,3.0,-46.3,-55.7,18,2,1,30.17,29.97,22,11,24,0.02
2013-11-5,52.0,41.6,32.7,-46.2,-52.7,-58.2,1,1,1,30.22,29.79,18,5,18,1.30
2013-11-6,42.4,35.7,27.0,11.3,-52.1,-61.9,28,2,1,30.22,29.79,25,9,25,0.07
2013-11-7,43.3,32.3,26.2,-51.6,-58.5,-62.3,1,1,1,30.25,30.17,20,8,25,0.00
2013-11-8,46.9,36.5,23.0,27.4,-37.2,-64.4,48,10,1,30.25,29.75,33,12,33,0.00
2013-11-9,50.4,42.7,34.2,21.7,-42.5,-57.4,33,4,1,30.22,29.76,31,12,33,0.00
2013-11-10,45.5,38.1,31.1,28.7,-28.9,-59.2,52,15,1,30.37,30.11,20,7,31,0.00
2013-11-11,41.7,28.6,15.4,0.3,-35.0,-63.7,35,11,1,30.63,30.08,33,7,33,0.00
2013-11-12,24.1,16.6,7.5,13.0,-8.5,-72.2,64,42,1,30.77,30.53,12,5,33,0.00
2013-11-13,43.5,29.5,15.4,26.8,13.0,-14.4,62,50,24,30.53,30.02,22,10,22,0.02
2013-11-14,48.2,37.6,28.8,31.2,20.7,5.9,58,50,35,30.02,29.86,17,7,22,0.00
2013-11-15,53.4,40.5,27.3,33.0,-10.3,-61.6,46,20,1,29.93,29.78,15,6,15,0.00
2013-11-16,56.8,47.6,38.5,-43.2,-49.0,-54.6,1,1,1,29.79,29.32,25,13,25,0.31
2013-11-17,48.7,42.3,35.2,-48.2,-52.2,-56.6,1,1,1,29.86,29.31,34,10,34,0.18
2013-11-18,38.1,33.1,25.5,19.6,-31.6,-62.8,48,13,1,30.27,29.86,31,12,34,0.00
2013-11-19,42.8,33.4,23.4,25.5,-20.2,-64.1,53,19,1,30.28,30.07,25,12,25,0.00
2013-11-20,37.4,35.8,34.5,17.6,-30.4,-57.1,45,14,1,30.07,29.96,25,16,25,0.00
2013-11-21,38.3,33.6,27.5,-54.8,-57.7,-61.5,1,1,1,30.36,30.04,22,5,25,0.00
2013-11-22,28.4,22.8,14.5,17.0,-14.0,-64.8,62,37,1,30.54,30.36,20,7,22,0.01
2013-11-23,21.0,12.7,4.1,7.4,3.0,-8.2,71,65,29,30.73,30.48,17,8,17,0.00
2013-11-24,23.9,14.3,2.7,11.8,3.9,-11.8,69,63,46,30.69,30.20,19,9,20,0.00
2013-11-25,33.6,27.9,19.6,16.3,-17.6,-64.8,66,27,1,30.20,30.02,25,11,25,0.02
2013-11-26,32.2,22.3,9.7,20.4,10.6,2.2,71,61,38,30.28,30.06,28,12,28,0.00
2013-11-27,23.2,14.9,7.0,12.4,6.1,-1.6,71,68,61,30.33,30.09,15,6,15,0.00
2013-11-28,30.0,20.1,11.5,19.9,10.3,0.9,69,65,53,30.48,30.06,17,6,17,0.00
2013-11-29,29.8,22.8,13.6,19.9,11.3,0.4,67,61,53,30.51,30.24,20,9,21,0.00
2013-11-30,41.7,32.5,25.0,29.1,9.5,-63.0,62,42,1,30.24,30.04,17,7,17,0.00
2013-12-1,39.9,32.9,25.5,27.4,-21.4,-62.8,61,21,1,30.17,29.95,14,3,17,0.00
2013-12-2,38.8,34.1,28.9,-54.4,-57.4,-60.6,1,1,1,29.95,29.64,24,12,24,0.00
2013-12-3,37.0,35.4,34.3,-55.5,-56.5,-57.2,1,1,1,29.71,29.61,19,7,24,0.00
2013-12-4,43.9,34.2,21.9,-51.3,-57.3,-65.0,1,1,1,29.79,29.43,34,12,34,0.05
2013-12-5,22.3,13.5,6.4,4.9,-22.5,-72.2,60,36,1,30.33,29.79,29,16,35,0.00
2013-12-6,12.6,5.8,-0.4,3.0,-5.5,-12.7,65,59,51,30.59,30.31,18,9,29,0.00
2013-12-7,10.2,4.0,-3.3,0.4,-5.6,-14.9,68,64,52,30.69,30.52,14,5,18,0.00
2013-12-8,18.0,13.7,9.1,2.2,-38.9,-69.9,66,27,1,30.54,29.98,16,6,16,0.00
2013-12-9,14.5,1.6,-7.2,-4.1,-20.8,-72.9,72,50,1,30.19,29.98,21,9,21,0.00
2013-12-10,16.2,10.5,-4.0,3.1,-18.2,-71.0,68,44,1,30.22,29.87,30,13,30,0.00
2013-12-11,16.5,1.8,-6.9,-1.3,-19.2,-69.1,72,57,1,30.52,30.22,25,8,30,0.00
2013-12-12,19.8,9.4,-3.5,6.7,-14.5,-71.9,68,47,1,30.44,30.13,19,6,25,0.00
2013-12-13,25.5,18.5,10.4,7.9,-31.2,-71.9,49,22,1,30.13,30.03,20,6,21,0.00
2013-12-14,20.7,16.8,9.5,-0.8,-35.0,-68.5,60,20,1,30.13,30.04,20,8,21,0.00
2013-12-15,9.5,6.6,2.5,1.0,-3.2,-12.7,69,64,39,30.10,30.05,17,6,20,0.00
2013-12-16,19.4,13.9,7.5,-8.0,-33.1,-68.8,47,22,1,30.08,29.95,14,7,16,0.00
2013-12-17,31.3,22.7,12.9,6.5,-36.1,-70.8,39,13,1,30.14,29.95,27,12,28,0.00
2013-12-18,38.8,26.6,10.8,15.1,-45.4,-72.2,54,10,1,30.13,29.74,24,9,28,0.02
2013-12-19,32.7,28.4,25.9,-4.9,-51.9,-62.5,22,3,1,29.93,29.77,19,6,24,0.00
2013-12-20,26.2,22.6,21.6,-62.3,-64.6,-65.3,1,1,1,29.90,29.82,16,5,16,0.00
2013-12-21,25.3,23.5,21.6,-62.9,-64.0,-65.3,1,1,1,29.89,29.77,16,6,16,0.00
2013-12-22,24.6,17.8,1.6,-6.8,-45.8,-66.9,60,13,1,30.21,29.77,25,11,25,0.00
2013-12-23,1.4,-3.8,-10.7,-8.0,-11.1,-16.9,73,70,61,30.46,30.21,19,9,20,0.00
2013-12-24,9.7,-3.1,-14.8,-3.0,-14.2,-45.0,75,63,7,30.47,30.18,21,9,21,0.00
2013-12-25,25.0,17.4,9.7,10.9,-47.3,-72.5,63,16,1,30.18,30.08,19,8,20,0.00
2013-12-26,27.5,22.7,11.7,11.7,-36.2,-70.4,51,14,1,30.18,30.08,10,4,10,0.00
2013-12-27,36.7,24.1,9.3,8.3,-46.3,-71.7,32,6,1,30.20,30.03,16,5,16,0.00
2013-12-28,40.5,32.3,24.1,21.3,-27.6,-63.7,46,15,1,30.06,29.76,25,10,25,0.00
2013-12-29,29.1,8.3,-9.8,0.2,-17.4,-64.8,75,51,1,30.26,29.85,26,13,26,0.00
2013-12-30,3.0,-4.6,-13.9,-6.5,-12.1,-19.5,76,70,59,30.26,30.14,9,4,26,0.00
2013-12-31,5.4,1.1,-8.3,-4.6,-9.7,-14.7,73,60,50,30.29,30.16,6,2,9,0.00
2014-1-1,6.4,3.4,-0.2,-0.7,-3.9,-8.0,73,71,66,30.32,30.24,21,6,21,0.00
2014-1-2,5.4,0.4,-9.4,-1.6,-6.2,-15.5,76,73,70,30.42,30.28,22,7,23,0.00